»·PEaware :: N642SP KOXR-KLGB

N642SP :: KOXR-KLGB

FLIGHT INFORMATION

Flight Status: Arrived
Operator: Privately registered:
United States
More flights under this callsign
Pilot: Wes T. (5776)
Aircraft: CESSNA 172 SKYHAWK
(C172)
More flights by this aircraft type
Origin: KOXR Oxnard
United States
Destination: KLGB Long Beach
United States
More flights between these airports :: More routes between these airports
Route: +VTU044R GINNA V326 V186 ADAMM V394 SLI
File this flight plan on PilotEdge
Remarks: TEC route VTUP6
Altitude:
(Current/Filed)
5,000ft
Speed:
(Current/Filed)
115kts
Departed: 30-Apr-19 11:16 AM
Arrived: 30-Apr-19 12:20 PM
Distance/Time
Traveled:
57nm/1:04
Distance/Time
To Go:
Arrived

Flight Plot

Page will automatically refresh every two minutes.


Map Options




Map Legend


Flown Route
Filed Route
Departure Airport
Arrival Airport
Navaid (VOR, NDB)
Fix

Horizontal Profiles

Position Reports

Time Latitude Longitude Heading Altitude Ground
Speed
30-Apr-19 10:43 34.199161 -119.208733 356 46ft 0kts
30-Apr-19 10:44 34.199164 -119.208734 356 46ft 0kts
30-Apr-19 10:45 34.199167 -119.208734 356 46ft 0kts
30-Apr-19 10:46 34.199171 -119.208734 356 46ft 0kts
30-Apr-19 10:47 34.199175 -119.208734 356 46ft 0kts
30-Apr-19 10:48 34.199178 -119.208735 356 46ft 0kts
30-Apr-19 10:49 34.199182 -119.208735 356 46ft 0kts
30-Apr-19 10:50 34.199185 -119.208735 356 46ft 0kts
30-Apr-19 10:51 34.199189 -119.208735 356 46ft 0kts
30-Apr-19 10:52 34.199193 -119.208736 356 46ft 0kts
30-Apr-19 10:53 34.199197 -119.208736 356 46ft 0kts
30-Apr-19 10:54 34.199201 -119.208736 356 46ft 0kts
30-Apr-19 10:55 34.199205 -119.208736 356 46ft 0kts
30-Apr-19 10:56 34.199209 -119.208737 356 46ft 0kts
30-Apr-19 10:58 34.199213 -119.208737 356 46ft 0kts
30-Apr-19 10:59 34.199217 -119.208737 356 46ft 0kts
30-Apr-19 11:00 34.199222 -119.208737 356 46ft 0kts
30-Apr-19 11:01 34.199226 -119.208738 356 46ft 0kts
30-Apr-19 11:02 34.199229 -119.208738 356 46ft 0kts
30-Apr-19 11:03 34.199233 -119.208738 356 46ft 0kts
30-Apr-19 11:04 34.199236 -119.208738 356 46ft 0kts
30-Apr-19 11:05 34.199240 -119.208739 356 46ft 0kts
30-Apr-19 11:06 34.199261 -119.208740 357 46ft 0kts
30-Apr-19 11:07 34.199680 -119.205281 90 46ft 21kts
30-Apr-19 11:08 34.199603 -119.198883 90 46ft 11kts
30-Apr-19 11:09 34.199619 -119.198058 350 46ft 0kts
30-Apr-19 11:10 34.199622 -119.198059 350 46ft 0kts
30-Apr-19 11:11 34.199631 -119.198060 350 46ft 1kts
30-Apr-19 11:12 34.200185 -119.198118 358 46ft 0kts
30-Apr-19 11:13 34.200188 -119.198118 358 46ft 0kts
30-Apr-19 11:14 34.200192 -119.198118 358 46ft 0kts
30-Apr-19 11:15 34.200196 -119.198119 358 46ft 0kts
30-Apr-19 11:16 34.200728 -119.199501 270 46ft 42kts
30-Apr-19 11:17 34.201066 -119.228366 269 638ft 110kts
30-Apr-19 11:18 34.200868 -119.266135 268 1419ft 112kts
30-Apr-19 11:19 34.200478 -119.302924 267 2262ft 107kts
30-Apr-19 11:20 34.219759 -119.312825 48 3066ft 114kts
30-Apr-19 11:21 34.216059 -119.271981 112 3358ft 124kts
30-Apr-19 11:22 34.205039 -119.235603 112 4243ft 109kts
30-Apr-19 11:23 34.194545 -119.201948 113 4985ft 116kts
30-Apr-19 11:24 34.182503 -119.164242 113 5005ft 123kts
30-Apr-19 11:24 34.172139 -119.131835 113 5011ft 125kts
30-Apr-19 11:26 34.157526 -119.086033 113 5014ft 125kts
30-Apr-19 11:26 34.147118 -119.053311 113 5015ft 125kts
30-Apr-19 11:27 34.149230 -119.013210 68 5019ft 127kts
30-Apr-19 11:28 34.162964 -118.973606 68 5014ft 128kts
30-Apr-19 11:29 34.176603 -118.934417 77 5013ft 127kts
30-Apr-19 11:31 34.194549 -118.889311 59 5013ft 129kts
30-Apr-19 11:31 34.210079 -118.858009 59 5012ft 131kts
30-Apr-19 11:32 34.223024 -118.817766 92 5009ft 130kts
30-Apr-19 11:33 34.223115 -118.773629 91 5001ft 131kts
30-Apr-19 11:34 34.223214 -118.729597 91 4998ft 131kts
30-Apr-19 11:35 34.223274 -118.685458 92 4995ft 131kts
30-Apr-19 11:36 34.223347 -118.641554 92 4994ft 130kts
30-Apr-19 11:37 34.223386 -118.597626 92 4994ft 131kts
30-Apr-19 11:38 34.223394 -118.553686 92 4991ft 130kts
30-Apr-19 11:39 34.223416 -118.510155 92 4985ft 128kts
30-Apr-19 11:40 34.216499 -118.468729 112 4984ft 126kts
30-Apr-19 11:41 34.204755 -118.429824 113 5266ft 119kts
30-Apr-19 11:42 34.193282 -118.392005 113 5780ft 120kts
30-Apr-19 11:43 34.181721 -118.353970 113 6277ft 120kts
30-Apr-19 11:44 34.170182 -118.315984 113 6777ft 120kts
30-Apr-19 11:45 34.158516 -118.277645 113 6974ft 120kts
30-Apr-19 11:46 34.146937 -118.239628 113 6984ft 121kts
30-Apr-19 11:47 34.135438 -118.201137 113 6985ft 122kts
30-Apr-19 11:48 34.124233 -118.162486 112 6987ft 121kts
30-Apr-19 11:49 34.113175 -118.123834 112 6989ft 123kts
30-Apr-19 11:50 34.101481 -118.085007 118 6991ft 123kts
30-Apr-19 11:51 34.088204 -118.047112 114 6999ft 121kts
30-Apr-19 11:52 34.076338 -118.008995 113 7001ft 121kts
30-Apr-19 11:53 34.064506 -117.970571 113 7001ft 122kts
30-Apr-19 11:54 34.052701 -117.932244 113 7000ft 122kts
30-Apr-19 11:55 34.040817 -117.893700 113 7000ft 121kts
30-Apr-19 11:56 34.028999 -117.855458 114 6932ft 126kts
30-Apr-19 11:57 34.012396 -117.822177 168 6314ft 112kts
30-Apr-19 11:58 33.983798 -117.832977 201 5746ft 109kts
30-Apr-19 11:59 33.955637 -117.846617 202 5148ft 109kts
30-Apr-19 12:00 33.927375 -117.860298 202 4543ft 109kts
30-Apr-19 12:01 33.899226 -117.873906 202 4015ft 103kts
30-Apr-19 12:02 33.873216 -117.886455 202 4005ft 107kts
30-Apr-19 12:03 33.844699 -117.895666 183 3998ft 111kts
30-Apr-19 12:04 33.814978 -117.896489 182 3990ft 96kts
30-Apr-19 12:05 33.788387 -117.897032 182 4017ft 109kts
30-Apr-19 12:06 33.755773 -117.897997 182 4008ft 120kts
30-Apr-19 12:07 33.723654 -117.898882 182 4003ft 113kts
30-Apr-19 12:08 33.694616 -117.899536 182 4013ft 95kts
30-Apr-19 12:09 33.678255 -117.916840 280 3788ft 108kts
30-Apr-19 12:10 33.685636 -117.950906 282 3226ft 100kts
30-Apr-19 12:11 33.692160 -117.980023 281 2928ft 100kts
30-Apr-19 12:12 33.703852 -118.009721 305 2414ft 99kts
30-Apr-19 12:13 33.721913 -118.034535 313 2020ft 94kts
30-Apr-19 12:14 33.740235 -118.055964 308 2011ft 95kts
30-Apr-19 12:15 33.758602 -118.078956 308 1594ft 96kts
30-Apr-19 12:16 33.777353 -118.101947 310 1024ft 95kts
30-Apr-19 12:17 33.791807 -118.120024 315 671ft 64kts
30-Apr-19 12:18 33.804279 -118.135019 315 268ft 60kts
30-Apr-19 12:19 33.812932 -118.145478 311 63ft 10kts
30-Apr-19 12:20 33.814646 -118.147565 316 63ft 0kts
30-Apr-19 12:21 33.815023 -118.150484 270 63ft 14kts
30-Apr-19 12:22 33.813124 -118.151747 201 63ft 4kts
30-Apr-19 12:23 33.812565 -118.152356 298 63ft 0kts

Navigation Log

Ident Type
Flight plan parsing failed, navigation log unavailable